sensor_id;sensor_type;location;lat;lon;timestamp;pressure;altitude;pressure_sealevel;temperature;humidity
10474;BME280;5284;50.446;7.904;2022-07-23T00:02:02;98512.00;;;19.70;100.00
10474;BME280;5284;50.446;7.904;2022-07-23T00:07:06;98520.28;;;19.69;100.00
10474;BME280;5284;50.446;7.904;2022-07-23T00:12:09;98517.59;;;19.69;100.00
10474;BME280;5284;50.446;7.904;2022-07-23T00:17:12;98502.19;;;19.69;100.00
10474;BME280;5284;50.446;7.904;2022-07-23T00:22:16;98500.34;;;19.41;100.00
10474;BME280;5284;50.446;7.904;2022-07-23T00:27:19;98512.09;;;19.48;100.00
10474;BME280;5284;50.446;7.904;2022-07-23T00:32:22;98515.91;;;19.39;100.00
10474;BME280;5284;50.446;7.904;2022-07-23T00:37:46;98493.34;;;19.32;100.00
10474;BME280;5284;50.446;7.904;2022-07-23T00:42:49;98483.63;;;19.23;100.00
10474;BME280;5284;50.446;7.904;2022-07-23T00:47:52;98475.47;;;19.08;100.00
10474;BME280;5284;50.446;7.904;2022-07-23T00:52:56;98495.41;;;18.93;100.00
10474;BME280;5284;50.446;7.904;2022-07-23T00:58:01;98514.22;;;18.86;100.00
10474;BME280;5284;50.446;7.904;2022-07-23T01:03:03;98509.38;;;18.82;100.00
10474;BME280;5284;50.446;7.904;2022-07-23T01:08:08;98505.16;;;18.79;100.00
10474;BME280;5284;50.446;7.904;2022-07-23T01:13:10;98494.72;;;18.76;100.00
10474;BME280;5284;50.446;7.904;2022-07-23T01:18:14;98492.38;;;18.73;100.00
10474;BME280;5284;50.446;7.904;2022-07-23T01:23:18;98492.91;;;18.69;100.00
10474;BME280;5284;50.446;7.904;2022-07-23T01:28:27;98487.06;;;18.65;100.00
10474;BME280;5284;50.446;7.904;2022-07-23T01:33:32;98490.94;;;18.63;100.00
10474;BME280;5284;50.446;7.904;2022-07-23T01:38:36;98496.91;;;18.58;100.00
10474;BME280;5284;50.446;7.904;2022-07-23T01:43:39;98496.97;;;18.50;100.00
10474;BME280;5284;50.446;7.904;2022-07-23T01:48:43;98483.72;;;18.41;100.00
10474;BME280;5284;50.446;7.904;2022-07-23T01:54:07;98455.69;;;18.42;100.00
10474;BME280;5284;50.446;7.904;2022-07-23T01:59:10;98456.50;;;18.43;100.00
10474;BME280;5284;50.446;7.904;2022-07-23T02:04:13;98462.81;;;18.35;100.00
10474;BME280;5284;50.446;7.904;2022-07-23T02:09:17;98467.09;;;18.30;100.00
10474;BME280;5284;50.446;7.904;2022-07-23T02:14:21;98460.84;;;18.29;100.00
10474;BME280;5284;50.446;7.904;2022-07-23T02:19:25;98456.78;;;18.25;100.00
10474;BME280;5284;50.446;7.904;2022-07-23T02:24:30;98462.56;;;18.22;100.00
10474;BME280;5284;50.446;7.904;2022-07-23T02:29:33;98464.59;;;18.20;100.00
10474;BME280;5284;50.446;7.904;2022-07-23T02:34:36;98481.16;;;18.17;100.00
10474;BME280;5284;50.446;7.904;2022-07-23T02:39:40;98481.97;;;18.18;100.00
10474;BME280;5284;50.446;7.904;2022-07-23T02:44:43;98480.97;;;18.19;100.00
10474;BME280;5284;50.446;7.904;2022-07-23T02:49:46;98488.75;;;18.14;100.00
10474;BME280;5284;50.446;7.904;2022-07-23T02:54:50;98490.09;;;18.18;100.00
10474;BME280;5284;50.446;7.904;2022-07-23T02:59:53;98495.47;;;18.18;100.00
10474;BME280;5284;50.446;7.904;2022-07-23T03:04:56;98499.56;;;18.14;100.00
10474;BME280;5284;50.446;7.904;2022-07-23T03:10:00;98512.22;;;18.13;100.00
10474;BME280;5284;50.446;7.904;2022-07-23T03:15:04;98514.28;;;18.11;100.00
10474;BME280;5284;50.446;7.904;2022-07-23T03:20:08;98504.66;;;18.09;100.00
10474;BME280;5284;50.446;7.904;2022-07-23T03:25:14;98508.38;;;18.08;100.00
10474;BME280;5284;50.446;7.904;2022-07-23T03:30:17;98496.75;;;18.07;100.00
10474;BME280;5284;50.446;7.904;2022-07-23T03:35:20;98498.78;;;18.05;100.00
10474;BME280;5284;50.446;7.904;2022-07-23T03:40:40;98501.81;;;18.02;100.00
10474;BME280;5284;50.446;7.904;2022-07-23T03:45:43;98502.19;;;17.99;100.00
10474;BME280;5284;50.446;7.904;2022-07-23T03:50:45;98510.63;;;17.96;100.00
10474;BME280;5284;50.446;7.904;2022-07-23T03:55:49;98518.72;;;17.96;100.00
10474;BME280;5284;50.446;7.904;2022-07-23T04:00:52;98516.38;;;17.93;100.00
10474;BME280;5284;50.446;7.904;2022-07-23T04:05:55;98517.25;;;17.86;100.00
10474;BME280;5284;50.446;7.904;2022-07-23T04:11:00;98526.56;;;17.83;100.00
10474;BME280;5284;50.446;7.904;2022-07-23T04:16:03;98523.34;;;17.88;100.00
10474;BME280;5284;50.446;7.904;2022-07-23T04:21:06;98534.31;;;17.86;100.00
10474;BME280;5284;50.446;7.904;2022-07-23T04:26:12;98534.63;;;17.91;100.00
10474;BME280;5284;50.446;7.904;2022-07-23T04:31:20;98533.25;;;17.95;100.00
10474;BME280;5284;50.446;7.904;2022-07-23T04:36:23;98539.31;;;17.97;100.00
10474;BME280;5284;50.446;7.904;2022-07-23T04:41:27;98539.31;;;17.97;100.00
10474;BME280;5284;50.446;7.904;2022-07-23T04:46:30;98544.69;;;17.97;100.00
10474;BME280;5284;50.446;7.904;2022-07-23T04:51:33;98549.56;;;18.02;98.46
10474;BME280;5284;50.446;7.904;2022-07-23T04:56:37;98553.97;;;18.03;99.58
10474;BME280;5284;50.446;7.904;2022-07-23T05:01:40;98558.50;;;18.02;100.00
10474;BME280;5284;50.446;7.904;2022-07-23T05:06:44;98560.69;;;18.07;97.01
10474;BME280;5284;50.446;7.904;2022-07-23T05:11:49;98559.66;;;18.08;100.00
10474;BME280;5284;50.446;7.904;2022-07-23T05:16:53;98564.53;;;18.12;96.99
10474;BME280;5284;50.446;7.904;2022-07-23T05:21:57;98565.22;;;18.14;98.10
10474;BME280;5284;50.446;7.904;2022-07-23T05:27:02;98562.16;;;18.17;99.43
10474;BME280;5284;50.446;7.904;2022-07-23T05:32:06;98565.63;;;18.34;94.91
10474;BME280;5284;50.446;7.904;2022-07-23T05:37:13;98567.47;;;18.63;94.11
10474;BME280;5284;50.446;7.904;2022-07-23T05:42:17;98566.84;;;18.98;89.64
10474;BME280;5284;50.446;7.904;2022-07-23T05:47:20;98560.69;;;19.27;89.18
10474;BME280;5284;50.446;7.904;2022-07-23T05:52:22;98555.47;;;19.54;86.27
10474;BME280;5284;50.446;7.904;2022-07-23T05:57:45;98576.09;;;19.70;85.11
10474;BME280;5284;50.446;7.904;2022-07-23T06:02:48;98578.34;;;19.95;83.96
10474;BME280;5284;50.446;7.904;2022-07-23T06:07:56;98600.31;;;20.14;81.92
10474;BME280;5284;50.446;7.904;2022-07-23T06:13:02;98604.03;;;20.28;80.61
10474;BME280;5284;50.446;7.904;2022-07-23T06:18:05;98607.97;;;20.11;81.32
10474;BME280;5284;50.446;7.904;2022-07-23T06:23:08;98611.03;;;20.08;79.97
10474;BME280;5284;50.446;7.904;2022-07-23T06:28:13;98614.28;;;20.32;78.03
10474;BME280;5284;50.446;7.904;2022-07-23T06:33:17;98606.59;;;20.71;76.71
10474;BME280;5284;50.446;7.904;2022-07-23T06:38:19;98609.50;;;20.84;74.92
10474;BME280;5284;50.446;7.904;2022-07-23T06:43:24;98610.88;;;20.80;74.92
10474;BME280;5284;50.446;7.904;2022-07-23T06:48:29;98615.56;;;20.86;74.46
10474;BME280;5284;50.446;7.904;2022-07-23T06:53:32;98619.22;;;21.21;73.79
10474;BME280;5284;50.446;7.904;2022-07-23T06:58:36;98635.25;;;21.37;75.07
10474;BME280;5284;50.446;7.904;2022-07-23T07:03:39;98630.94;;;21.21;75.41
10474;BME280;5284;50.446;7.904;2022-07-23T07:08:42;98641.06;;;21.34;75.01
10474;BME280;5284;50.446;7.904;2022-07-23T07:13:46;98644.69;;;20.99;76.55
10474;BME280;5284;50.446;7.904;2022-07-23T07:18:49;98653.91;;;21.04;76.04
10474;BME280;5284;50.446;7.904;2022-07-23T07:23:52;98655.41;;;21.07;75.92
10474;BME280;5284;50.446;7.904;2022-07-23T07:28:56;98651.34;;;21.17;74.90
10474;BME280;5284;50.446;7.904;2022-07-23T07:34:00;98654.66;;;21.34;74.96
10474;BME280;5284;50.446;7.904;2022-07-23T07:39:03;98660.03;;;21.55;74.65
10474;BME280;5284;50.446;7.904;2022-07-23T07:44:07;98675.38;;;21.62;73.89
10474;BME280;5284;50.446;7.904;2022-07-23T07:49:10;98684.03;;;21.99;73.41
10474;BME280;5284;50.446;7.904;2022-07-23T07:54:17;98685.09;;;22.05;72.12
10474;BME280;5284;50.446;7.904;2022-07-23T07:59:23;98688.06;;;22.10;73.01
10474;BME280;5284;50.446;7.904;2022-07-23T08:04:32;98694.19;;;22.18;71.18
10474;BME280;5284;50.446;7.904;2022-07-23T08:09:35;98690.56;;;22.39;70.91
10474;BME280;5284;50.446;7.904;2022-07-23T08:14:39;98692.88;;;22.82;69.91
10474;BME280;5284;50.446;7.904;2022-07-23T08:19:42;98696.19;;;22.71;69.86
10474;BME280;5284;50.446;7.904;2022-07-23T08:24:45;98698.94;;;22.84;68.80
10474;BME280;5284;50.446;7.904;2022-07-23T08:29:49;98706.66;;;23.28;68.05
10474;BME280;5284;50.446;7.904;2022-07-23T08:34:52;98706.63;;;23.15;67.79
10474;BME280;5284;50.446;7.904;2022-07-23T08:39:54;98699.38;;;22.88;69.12
10474;BME280;5284;50.446;7.904;2022-07-23T08:44:59;98701.84;;;23.30;68.02
10474;BME280;5284;50.446;7.904;2022-07-23T08:50:02;98707.22;;;23.10;69.27
10474;BME280;5284;50.446;7.904;2022-07-23T08:55:07;98707.94;;;23.64;67.42
10474;BME280;5284;50.446;7.904;2022-07-23T09:00:12;98711.72;;;23.63;65.74
10474;BME280;5284;50.446;7.904;2022-07-23T09:05:16;98716.72;;;23.46;66.90
10474;BME280;5284;50.446;7.904;2022-07-23T09:10:19;98719.13;;;23.88;66.14
10474;BME280;5284;50.446;7.904;2022-07-23T09:15:29;98724.09;;;23.78;66.59
10474;BME280;5284;50.446;7.904;2022-07-23T09:20:32;98718.44;;;23.73;66.49
10474;BME280;5284;50.446;7.904;2022-07-23T09:25:36;98706.50;;;24.00;65.44
10474;BME280;5284;50.446;7.904;2022-07-23T09:30:41;98695.06;;;24.75;63.53
10474;BME280;5284;50.446;7.904;2022-07-23T09:35:52;98709.06;;;24.91;62.73
10474;BME280;5284;50.446;7.904;2022-07-23T09:41:08;98712.66;;;24.85;62.28
10474;BME280;5284;50.446;7.904;2022-07-23T09:46:20;98712.50;;;24.61;62.37
10474;BME280;5284;50.446;7.904;2022-07-23T09:51:23;98714.41;;;24.60;62.11
10474;BME280;5284;50.446;7.904;2022-07-23T09:56:34;98723.63;;;25.16;61.14
10474;BME280;5284;50.446;7.904;2022-07-23T10:01:39;98713.91;;;25.33;59.98
10474;BME280;5284;50.446;7.904;2022-07-23T10:06:43;98718.66;;;25.75;59.62
10474;BME280;5284;50.446;7.904;2022-07-23T10:12:10;98714.47;;;26.03;58.38
10474;BME280;5284;50.446;7.904;2022-07-23T10:17:35;98723.41;;;26.35;55.45
10474;BME280;5284;50.446;7.904;2022-07-23T10:22:42;98709.41;;;26.67;54.49
10474;BME280;5284;50.446;7.904;2022-07-23T10:28:06;98708.09;;;25.85;52.96
10474;BME280;5284;50.446;7.904;2022-07-23T10:33:32;98698.59;;;26.12;52.61
10474;BME280;5284;50.446;7.904;2022-07-23T10:38:48;98698.03;;;26.46;52.17
10474;BME280;5284;50.446;7.904;2022-07-23T10:44:06;98702.34;;;26.17;49.87
10474;BME280;5284;50.446;7.904;2022-07-23T10:49:23;98696.31;;;26.09;50.61
10474;BME280;5284;50.446;7.904;2022-07-23T10:54:27;98688.53;;;25.88;51.37
10474;BME280;5284;50.446;7.904;2022-07-23T10:59:30;98688.66;;;26.60;50.16
10474;BME280;5284;50.446;7.904;2022-07-23T11:04:51;98693.97;;;26.72;47.69
10474;BME280;5284;50.446;7.904;2022-07-23T11:09:54;98686.53;;;27.27;47.91
10474;BME280;5284;50.446;7.904;2022-07-23T11:15:05;98683.25;;;27.77;47.24
10474;BME280;5284;50.446;7.904;2022-07-23T11:20:21;98686.75;;;28.07;45.70
10474;BME280;5284;50.446;7.904;2022-07-23T11:25:31;98695.50;;;28.38;46.42
10474;BME280;5284;50.446;7.904;2022-07-23T11:30:40;98693.13;;;28.53;45.07
10474;BME280;5284;50.446;7.904;2022-07-23T11:35:46;98682.69;;;29.18;45.78
10474;BME280;5284;50.446;7.904;2022-07-23T11:40:51;98682.91;;;29.00;45.34
10474;BME280;5284;50.446;7.904;2022-07-23T11:45:58;98680.97;;;29.00;44.52
10474;BME280;5284;50.446;7.904;2022-07-23T11:51:03;98675.22;;;29.13;44.40
10474;BME280;5284;50.446;7.904;2022-07-23T11:56:08;98680.75;;;29.74;43.38
10474;BME280;5284;50.446;7.904;2022-07-23T12:01:11;98680.03;;;29.79;43.58
10474;BME280;5284;50.446;7.904;2022-07-23T12:06:16;98683.22;;;30.36;42.50
10474;BME280;5284;50.446;7.904;2022-07-23T12:11:19;98678.34;;;31.67;42.46
10474;BME280;5284;50.446;7.904;2022-07-23T12:16:22;98686.97;;;32.07;41.39
10474;BME280;5284;50.446;7.904;2022-07-23T12:21:27;98675.78;;;32.65;39.95
10474;BME280;5284;50.446;7.904;2022-07-23T12:26:29;98684.91;;;33.12;39.27
10474;BME280;5284;50.446;7.904;2022-07-23T12:31:32;98695.09;;;33.01;38.87
10474;BME280;5284;50.446;7.904;2022-07-23T12:36:40;98688.91;;;33.35;37.66
10474;BME280;5284;50.446;7.904;2022-07-23T12:41:52;98696.06;;;35.26;36.20
10474;BME280;5284;50.446;7.904;2022-07-23T12:46:55;98687.06;;;33.00;37.57
10474;BME280;5284;50.446;7.904;2022-07-23T12:52:00;98692.75;;;35.19;36.70
10474;BME280;5284;50.446;7.904;2022-07-23T12:57:18;98694.84;;;35.47;33.59
10474;BME280;5284;50.446;7.904;2022-07-23T13:02:20;98693.75;;;35.43;34.95
10474;BME280;5284;50.446;7.904;2022-07-23T13:07:25;98702.94;;;36.59;34.86
10474;BME280;5284;50.446;7.904;2022-07-23T13:12:27;98703.09;;;37.19;33.70
10474;BME280;5284;50.446;7.904;2022-07-23T13:17:31;98704.13;;;37.51;33.02
10474;BME280;5284;50.446;7.904;2022-07-23T13:22:35;98710.91;;;38.38;32.82
10474;BME280;5284;50.446;7.904;2022-07-23T13:27:38;98708.16;;;38.01;31.86
10474;BME280;5284;50.446;7.904;2022-07-23T13:32:41;98712.66;;;38.34;31.68
10474;BME280;5284;50.446;7.904;2022-07-23T13:37:46;98722.19;;;39.86;31.38
10474;BME280;5284;50.446;7.904;2022-07-23T13:42:49;98707.25;;;39.41;30.30
10474;BME280;5284;50.446;7.904;2022-07-23T13:47:52;98709.72;;;38.57;30.70
10474;BME280;5284;50.446;7.904;2022-07-23T13:52:56;98713.22;;;39.48;30.02
10474;BME280;5284;50.446;7.904;2022-07-23T13:57:59;98716.28;;;39.87;29.90
10474;BME280;5284;50.446;7.904;2022-07-23T14:03:03;98710.09;;;39.77;29.24
10474;BME280;5284;50.446;7.904;2022-07-23T14:08:08;98708.34;;;41.21;28.42
10474;BME280;5284;50.446;7.904;2022-07-23T14:13:11;98717.72;;;40.55;28.40
10474;BME280;5284;50.446;7.904;2022-07-23T14:18:13;98705.84;;;41.11;27.62
10474;BME280;5284;50.446;7.904;2022-07-23T14:23:17;98719.00;;;42.13;26.50
10474;BME280;5284;50.446;7.904;2022-07-23T14:28:21;98720.59;;;41.97;27.35
10474;BME280;5284;50.446;7.904;2022-07-23T14:33:24;98724.34;;;43.41;26.13
10474;BME280;5284;50.446;7.904;2022-07-23T14:38:29;98727.66;;;43.43;26.13
10474;BME280;5284;50.446;7.904;2022-07-23T14:43:32;98727.91;;;43.87;25.81
10474;BME280;5284;50.446;7.904;2022-07-23T14:48:36;98721.91;;;42.76;25.79
10474;BME280;5284;50.446;7.904;2022-07-23T14:53:41;98724.66;;;44.79;25.56
10474;BME280;5284;50.446;7.904;2022-07-23T14:58:44;98728.00;;;43.99;25.13
10474;BME280;5284;50.446;7.904;2022-07-23T15:03:47;98722.19;;;45.34;23.81
10474;BME280;5284;50.446;7.904;2022-07-23T15:08:53;98712.44;;;45.55;24.48
10474;BME280;5284;50.446;7.904;2022-07-23T15:13:56;98721.06;;;46.22;23.96
10474;BME280;5284;50.446;7.904;2022-07-23T15:18:59;98708.22;;;45.37;24.10
10474;BME280;5284;50.446;7.904;2022-07-23T15:24:05;98707.72;;;44.46;23.85
10474;BME280;5284;50.446;7.904;2022-07-23T15:29:08;98706.88;;;43.64;25.46
10474;BME280;5284;50.446;7.904;2022-07-23T15:34:11;98709.00;;;43.67;25.24
10474;BME280;5284;50.446;7.904;2022-07-23T15:39:15;98705.69;;;44.14;24.96
10474;BME280;5284;50.446;7.904;2022-07-23T15:44:18;98702.75;;;42.78;25.03
10474;BME280;5284;50.446;7.904;2022-07-23T15:49:28;98709.63;;;45.43;23.88
10474;BME280;5284;50.446;7.904;2022-07-23T15:54:33;98712.34;;;46.27;23.02
10474;BME280;5284;50.446;7.904;2022-07-23T15:59:37;98702.53;;;44.16;24.85
10474;BME280;5284;50.446;7.904;2022-07-23T16:04:42;98702.91;;;45.12;23.90
10474;BME280;5284;50.446;7.904;2022-07-23T16:09:46;98706.69;;;46.82;23.40
10474;BME280;5284;50.446;7.904;2022-07-23T16:14:49;98709.00;;;45.38;23.58
10474;BME280;5284;50.446;7.904;2022-07-23T16:19:52;98693.78;;;42.93;24.47
10474;BME280;5284;50.446;7.904;2022-07-23T16:24:56;98710.50;;;44.99;23.84
10474;BME280;5284;50.446;7.904;2022-07-23T16:29:59;98720.13;;;45.10;23.65
10474;BME280;5284;50.446;7.904;2022-07-23T16:35:02;98719.53;;;45.05;24.08
10474;BME280;5284;50.446;7.904;2022-07-23T16:40:16;98709.06;;;42.41;25.75
10474;BME280;5284;50.446;7.904;2022-07-23T16:45:18;98694.03;;;41.22;25.87
10474;BME280;5284;50.446;7.904;2022-07-23T16:50:22;98687.81;;;39.23;27.81
10474;BME280;5284;50.446;7.904;2022-07-23T16:55:26;98687.09;;;37.71;29.42
10474;BME280;5284;50.446;7.904;2022-07-23T17:00:29;98694.66;;;36.54;30.81
10474;BME280;5284;50.446;7.904;2022-07-23T17:05:32;98693.53;;;35.83;31.39
10474;BME280;5284;50.446;7.904;2022-07-23T17:10:37;98681.56;;;34.31;32.55
10474;BME280;5284;50.446;7.904;2022-07-23T17:15:39;98686.09;;;33.30;34.14
10474;BME280;5284;50.446;7.904;2022-07-23T17:20:42;98693.28;;;32.02;35.73
10474;BME280;5284;50.446;7.904;2022-07-23T17:25:47;98688.94;;;30.89;37.14
10474;BME280;5284;50.446;7.904;2022-07-23T17:30:49;98695.81;;;30.32;38.44
10474;BME280;5284;50.446;7.904;2022-07-23T17:35:53;98695.94;;;29.60;39.50
10474;BME280;5284;50.446;7.904;2022-07-23T17:40:58;98699.69;;;29.43;39.30
10474;BME280;5284;50.446;7.904;2022-07-23T17:46:01;98703.41;;;29.09;39.94
10474;BME280;5284;50.446;7.904;2022-07-23T17:51:05;98694.28;;;28.69;40.65
10474;BME280;5284;50.446;7.904;2022-07-23T17:56:10;98692.59;;;28.22;41.69
10474;BME280;5284;50.446;7.904;2022-07-23T18:01:13;98702.97;;;27.97;42.51
10474;BME280;5284;50.446;7.904;2022-07-23T18:06:16;98706.16;;;27.53;42.56
10474;BME280;5284;50.446;7.904;2022-07-23T18:11:20;98708.00;;;27.30;42.74
10474;BME280;5284;50.446;7.904;2022-07-23T18:16:25;98714.03;;;27.20;42.99
10474;BME280;5284;50.446;7.904;2022-07-23T18:21:28;98711.28;;;27.20;43.56
10474;BME280;5284;50.446;7.904;2022-07-23T18:26:32;98713.53;;;27.12;43.47
10474;BME280;5284;50.446;7.904;2022-07-23T18:31:35;98715.72;;;27.03;43.86
10474;BME280;5284;50.446;7.904;2022-07-23T18:36:38;98712.75;;;26.69;44.32
10474;BME280;5284;50.446;7.904;2022-07-23T18:41:43;98716.44;;;26.39;45.34
10474;BME280;5284;50.446;7.904;2022-07-23T18:46:48;98711.66;;;26.10;45.34
10474;BME280;5284;50.446;7.904;2022-07-23T18:51:51;98725.13;;;25.87;45.86
10474;BME280;5284;50.446;7.904;2022-07-23T18:56:57;98722.41;;;25.49;46.72
10474;BME280;5284;50.446;7.904;2022-07-23T19:02:00;98729.53;;;25.19;47.22
10474;BME280;5284;50.446;7.904;2022-07-23T19:07:03;98729.66;;;24.87;48.25
10474;BME280;5284;50.446;7.904;2022-07-23T19:12:08;98733.72;;;24.59;49.19
10474;BME280;5284;50.446;7.904;2022-07-23T19:17:11;98744.44;;;24.34;49.81
10474;BME280;5284;50.446;7.904;2022-07-23T19:22:14;98750.34;;;24.12;50.16
10474;BME280;5284;50.446;7.904;2022-07-23T19:27:18;98759.56;;;23.91;51.07
10474;BME280;5284;50.446;7.904;2022-07-23T19:32:21;98763.28;;;23.71;51.14
10474;BME280;5284;50.446;7.904;2022-07-23T19:37:23;98770.16;;;23.54;51.68
10474;BME280;5284;50.446;7.904;2022-07-23T19:42:28;98775.16;;;23.37;52.08
10474;BME280;5284;50.446;7.904;2022-07-23T19:47:37;98776.16;;;23.24;52.26
10474;BME280;5284;50.446;7.904;2022-07-23T19:52:45;98779.00;;;23.09;53.42
10474;BME280;5284;50.446;7.904;2022-07-23T19:57:49;98777.06;;;22.97;53.80
10474;BME280;5284;50.446;7.904;2022-07-23T20:02:52;98781.78;;;22.75;55.31
10474;BME280;5284;50.446;7.904;2022-07-23T20:07:57;98777.69;;;22.58;55.61
10474;BME280;5284;50.446;7.904;2022-07-23T20:13:01;98779.19;;;22.33;57.43
10474;BME280;5284;50.446;7.904;2022-07-23T20:18:04;98787.44;;;21.98;61.64
10474;BME280;5284;50.446;7.904;2022-07-23T20:23:06;98781.19;;;21.76;63.06
10474;BME280;5284;50.446;7.904;2022-07-23T20:28:11;98778.81;;;21.67;62.84
10474;BME280;5284;50.446;7.904;2022-07-23T20:33:13;98789.50;;;21.54;60.77
10474;BME280;5284;50.446;7.904;2022-07-23T20:38:16;98796.41;;;21.36;61.92
10474;BME280;5284;50.446;7.904;2022-07-23T20:43:21;98802.56;;;21.09;63.34
10474;BME280;5284;50.446;7.904;2022-07-23T20:48:23;98800.72;;;20.95;65.03
10474;BME280;5284;50.446;7.904;2022-07-23T20:53:29;98816.09;;;20.80;66.79
10474;BME280;5284;50.446;7.904;2022-07-23T20:58:34;98808.16;;;20.49;70.28
10474;BME280;5284;50.446;7.904;2022-07-23T21:03:36;98820.84;;;20.34;71.71
10474;BME280;5284;50.446;7.904;2022-07-23T21:08:39;98820.56;;;20.29;72.29
10474;BME280;5284;50.446;7.904;2022-07-23T21:13:43;98819.41;;;20.24;73.04
10474;BME280;5284;50.446;7.904;2022-07-23T21:18:48;98820.00;;;20.19;70.82
10474;BME280;5284;50.446;7.904;2022-07-23T21:23:50;98837.03;;;20.06;70.98
10474;BME280;5284;50.446;7.904;2022-07-23T21:28:55;98840.34;;;19.93;71.76
10474;BME280;5284;50.446;7.904;2022-07-23T21:33:58;98849.22;;;19.79;74.21
10474;BME280;5284;50.446;7.904;2022-07-23T21:39:02;98836.19;;;19.60;75.93
10474;BME280;5284;50.446;7.904;2022-07-23T21:44:07;98840.63;;;19.53;76.69
10474;BME280;5284;50.446;7.904;2022-07-23T21:49:10;98841.34;;;19.47;75.20
10474;BME280;5284;50.446;7.904;2022-07-23T21:54:13;98848.00;;;19.37;74.67
10474;BME280;5284;50.446;7.904;2022-07-23T21:59:19;98845.56;;;19.11;79.54
10474;BME280;5284;50.446;7.904;2022-07-23T22:04:21;98858.06;;;19.12;80.02
10474;BME280;5284;50.446;7.904;2022-07-23T22:09:24;98857.94;;;19.06;77.34
10474;BME280;5284;50.446;7.904;2022-07-23T22:14:29;98861.00;;;18.95;77.92
10474;BME280;5284;50.446;7.904;2022-07-23T22:19:31;98867.16;;;18.81;79.53
10474;BME280;5284;50.446;7.904;2022-07-23T22:24:34;98864.13;;;18.68;83.28
10474;BME280;5284;50.446;7.904;2022-07-23T22:29:39;98868.56;;;18.61;84.37
10474;BME280;5284;50.446;7.904;2022-07-23T22:34:42;98880.56;;;18.50;85.86
10474;BME280;5284;50.446;7.904;2022-07-23T22:39:45;98868.25;;;18.48;82.16
10474;BME280;5284;50.446;7.904;2022-07-23T22:44:49;98865.03;;;18.45;80.59
10474;BME280;5284;50.446;7.904;2022-07-23T22:49:52;98865.38;;;18.42;82.82
10474;BME280;5284;50.446;7.904;2022-07-23T22:54:56;98867.75;;;18.37;85.28
10474;BME280;5284;50.446;7.904;2022-07-23T23:00:00;98862.50;;;18.35;85.75
10474;BME280;5284;50.446;7.904;2022-07-23T23:05:03;98863.19;;;18.37;88.06
10474;BME280;5284;50.446;7.904;2022-07-23T23:10:07;98867.25;;;18.33;89.04
10474;BME280;5284;50.446;7.904;2022-07-23T23:15:11;98860.34;;;18.31;88.09
10474;BME280;5284;50.446;7.904;2022-07-23T23:20:14;98867.94;;;18.27;88.55
10474;BME280;5284;50.446;7.904;2022-07-23T23:25:18;98858.47;;;18.23;88.49
10474;BME280;5284;50.446;7.904;2022-07-23T23:30:23;98858.13;;;18.18;87.74
10474;BME280;5284;50.446;7.904;2022-07-23T23:35:25;98854.44;;;18.11;87.66
10474;BME280;5284;50.446;7.904;2022-07-23T23:40:28;98853.44;;;18.04;87.79
10474;BME280;5284;50.446;7.904;2022-07-23T23:45:32;98861.50;;;17.80;92.71
10474;BME280;5284;50.446;7.904;2022-07-23T23:50:35;98867.75;;;17.73;93.80
10474;BME280;5284;50.446;7.904;2022-07-23T23:55:38;98855.59;;;17.69;92.48
